Time;durP1;ratioP1;P1;durP2;ratioP2;P2;SDS_P1;SDS_P2;PMS_P1;PMS_P2;Temp;Humidity;BMP_temperature;BMP_pressure;BME280_temperature;BME280_humidity;BME280_pressure;Samples;Min_cycle;Max_cycle;Signal;HPM_P1;HPM_P2
2023/12/13 00:02:15;;;;;;;4.60;1.55;;;;;;;9.53;100.00;98437.72;6059940;23;20024;-88
2023/12/13 00:04:42;;;;;;;5.28;1.80;;;;;;;9.56;100.00;98442.66;6083864;23;20030;-88
2023/12/13 00:07:09;;;;;;;4.55;1.33;;;;;;;9.55;100.00;98441.84;6109999;23;20579;-88
2023/12/13 00:09:37;;;;;;;4.35;1.50;;;;;;;9.54;100.00;98437.56;6085819;23;20459;-88
2023/12/13 00:12:04;;;;;;;9.15;1.75;;;;;;;9.54;100.00;98431.41;6085629;23;20090;-88
2023/12/13 00:14:31;;;;;;;2.90;1.30;;;;;;;9.54;100.00;98437.56;6111354;23;20030;-88
2023/12/13 00:16:58;;;;;;;7.90;1.52;;;;;;;9.53;100.00;98435.88;6086078;23;20029;-88
2023/12/13 00:19:25;;;;;;;7.72;1.70;;;;;;;9.51;100.00;98435.22;6060881;23;20026;-88
2023/12/13 00:21:52;;;;;;;6.90;1.67;;;;;;;9.52;100.00;98442.19;6062206;23;20022;-87
2023/12/13 00:24:19;;;;;;;5.82;1.52;;;;;;;9.51;100.00;98437.84;6086179;23;20033;-87
2023/12/13 00:26:48;;;;;;;3.88;1.50;;;;;;;9.51;100.00;98437.84;6086315;23;20034;-87
2023/12/13 00:29:15;;;;;;;3.47;1.63;;;;;;;9.50;100.00;98438.84;6060642;23;20073;-87
2023/12/13 00:31:42;;;;;;;7.63;1.73;;;;;;;9.53;100.00;98437.72;6061616;23;20077;-88
2023/12/13 00:34:09;;;;;;;7.15;2.60;;;;;;;9.53;100.00;98440.34;6085458;23;20026;-88
2023/12/13 00:36:35;;;;;;;1.38;1.00;;;;;;;9.51;100.00;98437.84;6110809;23;20018;-88
2023/12/13 00:39:03;;;;;;;3.03;1.50;;;;;;;9.52;100.00;98438.72;6109964;23;20026;-87
2023/12/13 00:41:29;;;;;;;4.88;1.55;;;;;;;9.52;100.00;98436.88;6109523;23;20022;-88
2023/12/13 00:43:56;;;;;;;5.40;1.40;;;;;;;9.51;100.00;98440.50;6086303;23;20015;-88
2023/12/13 00:46:24;;;;;;;4.22;1.20;;;;;;;9.51;100.00;98437.03;6134846;23;20081;-88
2023/12/13 00:48:51;;;;;;;3.50;1.52;;;;;;;9.48;100.00;98440.84;6109602;23;20045;-87
2023/12/13 00:51:19;;;;;;;3.88;1.90;;;;;;;9.47;100.00;98439.19;6110318;23;20502;-88
2023/12/13 00:53:47;;;;;;;5.70;1.63;;;;;;;9.47;100.00;98427.78;6109770;23;20089;-88
2023/12/13 00:56:14;;;;;;;3.58;1.55;;;;;;;9.48;100.00;98432.06;6084728;23;20699;-88
2023/12/13 00:58:42;;;;;;;10.88;1.63;;;;;;;9.47;100.00;98420.66;6085127;23;20014;-88
2023/12/13 01:01:10;;;;;;;3.38;0.95;;;;;;;9.49;100.00;98431.06;6084594;23;20022;-88
2023/12/13 01:03:37;;;;;;;5.85;1.50;;;;;;;9.48;100.00;98427.59;6062113;23;20081;-88
2023/12/13 01:06:09;;;;;;;5.20;1.15;;;;;;;9.47;100.00;98427.78;6109540;23;20034;-88
2023/12/13 01:08:37;;;;;;;9.82;1.65;;;;;;;9.48;100.00;98429.41;6060572;23;20027;-88
2023/12/13 01:11:10;;;;;;;5.32;1.20;;;;;;;9.45;100.00;98430.56;6060951;23;20042;-89
2023/12/13 01:13:37;;;;;;;7.22;1.17;;;;;;;9.48;100.00;98430.25;6085383;23;20023;-88
2023/12/13 01:16:04;;;;;;;3.72;1.23;;;;;;;9.49;100.00;98428.41;6061487;23;20386;-88
2023/12/13 01:18:31;;;;;;;5.07;1.10;;;;;;;9.50;100.00;98427.44;6109641;23;20018;-89
2023/12/13 01:20:58;;;;;;;5.65;1.50;;;;;;;9.50;100.00;98433.56;6036527;23;20033;-89
2023/12/13 01:23:27;;;;;;;5.10;0.90;;;;;;;9.50;100.00;98430.09;6109877;23;20022;-88
2023/12/13 01:25:53;;;;;;;5.32;1.15;;;;;;;9.49;100.00;98426.63;6084694;23;20026;-88
2023/12/13 01:28:20;;;;;;;6.78;1.30;;;;;;;9.50;100.00;98435.38;6037282;23;20026;-89
2023/12/13 01:30:47;;;;;;;3.92;1.25;;;;;;;9.52;100.00;98450.13;6037347;23;20026;-88
2023/12/13 01:33:14;;;;;;;6.28;1.08;;;;;;;9.50;100.00;98435.38;6109268;23;20046;-88
2023/12/13 01:35:41;;;;;;;4.28;1.20;;;;;;;9.50;100.00;98438.84;6108420;23;20022;-89
2023/12/13 01:38:08;;;;;;;5.57;1.55;;;;;;;9.46;100.00;98439.34;6061987;23;20094;-89
2023/12/13 01:40:35;;;;;;;13.07;1.40;;;;;;;9.48;100.00;98453.25;6084630;23;20342;-88
2023/12/13 01:43:04;;;;;;;6.65;1.23;;;;;;;9.47;100.00;98444.50;6108370;23;20060;-88
2023/12/13 01:45:30;;;;;;;4.88;1.10;;;;;;;9.49;100.00;98444.31;6085619;23;20034;-88
2023/12/13 01:47:57;;;;;;;4.60;0.90;;;;;;;9.49;100.00;98450.47;6085615;23;20094;-89
2023/12/13 01:50:24;;;;;;;3.25;1.00;;;;;;;9.45;100.00;98448.28;6109089;23;20029;-87
2023/12/13 01:52:52;;;;;;;5.28;2.00;;;;;;;9.46;100.00;98445.47;6085108;23;20019;-88
2023/12/13 01:55:19;;;;;;;5.45;1.20;;;;;;;9.43;100.00;98447.63;6110184;23;20025;-88
2023/12/13 01:57:47;;;;;;;5.78;2.55;;;;;;;9.40;100.00;98440.00;6085092;23;20030;-88
2023/12/13 02:00:14;;;;;;;12.52;1.60;;;;;;;9.40;100.00;98448.78;6083082;23;20050;-88
2023/12/13 02:02:41;;;;;;;4.38;1.17;;;;;;;9.37;100.00;98437.69;6085349;23;20037;-88
2023/12/13 02:05:08;;;;;;;3.78;1.40;;;;;;;9.34;100.00;98439.66;6084755;23;20105;-88
2023/12/13 02:07:36;;;;;;;3.10;1.00;;;;;;;9.33;100.00;98435.34;6087208;23;20022;-88
2023/12/13 02:10:05;;;;;;;1.63;0.70;;;;;;;9.36;100.00;98434.19;6036503;23;20027;-88
2023/12/13 02:12:33;;;;;;;2.95;1.02;;;;;;;9.33;100.00;98440.63;6061775;23;20046;-88
2023/12/13 02:15:00;;;;;;;5.80;1.10;;;;;;;9.35;100.00;98440.50;6109274;23;20022;-88
2023/12/13 02:17:27;;;;;;;1.90;1.10;;;;;;;9.37;100.00;98443.00;6085460;23;20022;-88
2023/12/13 02:19:54;;;;;;;4.78;1.23;;;;;;;9.34;100.00;98441.50;6108350;23;20085;-88
2023/12/13 02:22:21;;;;;;;6.28;1.17;;;;;;;9.36;100.00;98436.84;6109088;23;20045;-88
2023/12/13 02:24:49;;;;;;;3.78;1.27;;;;;;;9.36;100.00;98434.19;6085248;23;20026;-88
2023/12/13 02:27:16;;;;;;;4.07;1.30;;;;;;;9.36;100.00;98431.53;6084582;23;20458;-88
2023/12/13 02:29:47;;;;;;;3.25;1.10;;;;;;;9.31;100.00;98423.25;6108188;23;20026;-89
2023/12/13 02:32:14;;;;;;;6.38;1.02;;;;;;;9.29;100.00;98428.72;6084441;23;20022;-89
2023/12/13 02:34:41;;;;;;;3.08;1.00;;;;;;;9.25;100.00;98427.38;6109042;23;20037;-89
2023/12/13 02:37:08;;;;;;;2.13;0.98;;;;;;;9.25;100.00;98426.56;6059962;23;20450;-89
2023/12/13 02:39:35;;;;;;;0.90;0.90;;;;;;;9.24;100.00;98430.22;6060344;23;20502;-89
2023/12/13 02:42:02;;;;;;;3.58;1.00;;;;;;;9.22;100.00;98424.25;6037289;23;20019;-89
2023/12/13 02:44:29;;;;;;;3.90;1.20;;;;;;;9.22;100.00;98425.06;6061322;23;20081;-89
2023/12/13 02:46:58;;;;;;;3.53;1.35;;;;;;;9.21;100.00;98422.56;6084207;23;20015;-89
2023/12/13 02:49:24;;;;;;;5.40;1.05;;;;;;;9.21;100.00;98422.56;6108271;23;20044;-89
2023/12/13 02:51:51;;;;;;;6.35;1.00;;;;;;;9.24;100.00;98424.91;6085119;23;20128;-89
2023/12/13 02:54:18;;;;;;;6.50;1.70;;;;;;;9.23;100.00;98416.13;6109671;23;20025;-89
2023/12/13 02:56:45;;;;;;;1.95;0.90;;;;;;;9.25;100.00;98410.66;6084779;23;20034;-89
2023/12/13 02:59:12;;;;;;;5.28;1.52;;;;;;;9.25;100.00;98408.84;6109199;23;20707;-89
2023/12/13 03:01:39;;;;;;;4.95;2.10;;;;;;;9.24;100.00;98409.03;6036571;23;20034;-90
2023/12/13 03:04:06;;;;;;;2.80;1.65;;;;;;;9.25;100.00;98408.84;6059542;23;20034;-88
2023/12/13 03:06:32;;;;;;;3.30;1.95;;;;;;;9.29;100.00;98396.94;6060864;23;20026;-89
2023/12/13 03:08:59;;;;;;;6.22;1.35;;;;;;;9.28;100.00;98397.09;6108539;23;20014;-90
2023/12/13 03:11:27;;;;;;;3.15;1.42;;;;;;;9.27;100.00;98390.16;6035856;23;20022;-89
2023/12/13 03:13:54;;;;;;;5.60;1.38;;;;;;;9.26;100.00;98389.31;6109307;23;20816;-89
2023/12/13 03:16:21;;;;;;;3.58;0.90;;;;;;;9.25;100.00;98382.34;6060628;23;20025;-89
2023/12/13 03:18:50;;;;;;;3.83;1.20;;;;;;;9.25;100.00;98384.19;6083779;23;20026;-88
2023/12/13 03:21:17;;;;;;;6.60;1.10;;;;;;;9.24;100.00;98372.75;6108652;23;20011;-89
2023/12/13 03:23:44;;;;;;;7.88;1.20;;;;;;;9.24;100.00;98379.88;6085325;23;20130;-88
2023/12/13 03:26:11;;;;;;;4.72;1.00;;;;;;;9.22;100.00;98381.84;6059409;23;20764;-88
2023/12/13 03:28:38;;;;;;;5.22;1.08;;;;;;;9.18;100.00;98375.22;6109055;23;20041;-88
2023/12/13 03:31:08;;;;;;;3.80;1.83;;;;;;;9.12;100.00;98374.88;6035973;23;20033;-89
2023/12/13 03:33:35;;;;;;;2.42;1.42;;;;;;;9.12;100.00;98387.28;6132909;23;20042;-89
2023/12/13 03:36:02;;;;;;;6.47;1.80;;;;;;;9.11;100.00;98386.47;6084122;23;20027;-88
2023/12/13 03:38:29;;;;;;;6.18;2.63;;;;;;;9.10;100.00;98383.97;6108798;23;20022;-89
2023/12/13 03:40:56;;;;;;;12.88;3.42;;;;;;;9.09;100.00;98390.28;6060960;23;20022;-88
2023/12/13 03:43:23;;;;;;;13.70;4.40;;;;;;;9.10;100.00;98391.91;6062179;23;20034;-88
2023/12/13 03:45:49;;;;;;;14.65;3.97;;;;;;;9.09;100.00;98393.75;6063041;23;20042;-89
2023/12/13 03:48:16;;;;;;;11.60;3.90;;;;;;;9.11;100.00;98390.94;6087292;23;20022;-89
2023/12/13 03:50:43;;;;;;;13.90;3.13;;;;;;;9.10;100.00;98395.38;6085400;23;20346;-89
2023/12/13 03:53:10;;;;;;;10.70;2.25;;;;;;;9.09;100.00;98396.41;6086517;23;20529;-89
2023/12/13 03:55:37;;;;;;;5.72;2.10;;;;;;;9.10;100.00;98392.75;6110766;23;20022;-88
2023/12/13 03:58:04;;;;;;;8.85;2.72;;;;;;;9.11;100.00;98388.31;6062239;23;20022;-88
2023/12/13 04:00:31;;;;;;;7.97;2.50;;;;;;;9.10;100.00;98383.97;6061269;23;20049;-88
2023/12/13 04:02:58;;;;;;;5.50;2.10;;;;;;;9.10;100.00;98384.81;6062325;23;20706;-88
2023/12/13 04:05:26;;;;;;;8.68;2.28;;;;;;;9.10;100.00;98371.56;6062220;23;20028;-89
2023/12/13 04:07:53;;;;;;;5.30;2.15;;;;;;;9.11;100.00;98380.34;6085827;23;20350;-89
2023/12/13 04:10:20;;;;;;;3.28;1.75;;;;;;;9.12;100.00;98376.69;6085519;23;20022;-89
2023/12/13 04:12:47;;;;;;;4.07;1.92;;;;;;;9.10;100.00;98370.75;6061813;23;20018;-89
2023/12/13 04:15:16;;;;;;;4.25;2.00;;;;;;;9.09;100.00;98369.09;6088117;23;20048;-90
2023/12/13 04:17:43;;;;;;;4.32;1.70;;;;;;;9.07;100.00;98356.00;6063544;23;20439;-89
2023/12/13 04:20:10;;;;;;;8.02;3.22;;;;;;;9.09;100.00;98358.50;6105276;23;20035;-90
2023/12/13 04:22:37;;;;;;;13.02;4.05;;;;;;;9.08;100.00;98356.81;6085515;23;20018;-91
2023/12/13 04:25:04;;;;;;;7.10;3.40;;;;;;;9.05;100.00;98351.84;6084986;23;20026;-91
2023/12/13 04:27:31;;;;;;;3.25;2.28;;;;;;;9.06;100.00;98359.66;6088213;23;20026;-90
2023/12/13 04:29:58;;;;;;;3.05;1.25;;;;;;;9.05;100.00;98357.16;6062814;23;20074;-90
2023/12/13 04:32:25;;;;;;;6.13;2.50;;;;;;;9.05;100.00;98355.31;6088414;23;20033;-91
2023/12/13 04:34:52;;;;;;;5.10;4.47;;;;;;;9.01;100.00;98350.53;6037897;23;20022;-90
2023/12/13 04:37:21;;;;;;;6.93;4.95;;;;;;;9.03;100.00;98353.84;6062910;23;20430;-91
2023/12/13 04:39:48;;;;;;;10.25;5.50;;;;;;;9.01;100.00;98345.25;6061907;23;20019;-90
2023/12/13 04:42:15;;;;;;;7.35;5.20;;;;;;;8.99;100.00;98350.69;6086094;23;20086;-90
2023/12/13 04:44:42;;;;;;;11.82;4.03;;;;;;;9.02;100.00;98357.47;6063159;23;20018;-91
2023/12/13 04:47:09;;;;;;;4.75;2.45;;;;;;;9.02;100.00;98346.91;6086062;23;20026;-92
2023/12/13 04:49:37;;;;;;;5.53;1.85;;;;;;;9.01;100.00;98343.44;6038361;23;20030;-90
2023/12/13 04:52:04;;;;;;;4.15;1.23;;;;;;;9.00;100.00;98344.41;6085862;23;20077;-91
2023/12/13 04:54:30;;;;;;;8.93;1.60;;;;;;;8.99;100.00;98332.16;6038989;23;20028;-90
2023/12/13 04:56:57;;;;;;;7.40;2.20;;;;;;;8.98;100.00;98329.66;6062219;23;20021;-90
2023/12/13 04:59:24;;;;;;;9.52;2.55;;;;;;;8.96;100.00;98331.66;6086089;23;20482;-90
2023/12/13 05:01:51;;;;;;;10.32;5.35;;;;;;;8.94;100.00;98321.22;6084996;23;20403;-91
2023/12/13 05:04:18;;;;;;;11.02;6.10;;;;;;;8.96;100.00;98327.19;6086038;23;20093;-89
2023/12/13 05:06:45;;;;;;;10.73;4.90;;;;;;;8.94;100.00;98328.34;6110645;23;20014;-93
2023/12/13 05:09:12;;;;;;;12.40;6.75;;;;;;;8.93;100.00;98330.19;6086983;23;20030;-90
2023/12/13 05:11:38;;;;;;;13.25;7.70;;;;;;;8.94;100.00;98329.19;6062037;23;20018;-90
2023/12/13 05:14:05;;;;;;;12.20;6.20;;;;;;;8.90;100.00;98323.38;6108771;23;20054;-90
2023/12/13 05:16:32;;;;;;;6.60;3.97;;;;;;;8.89;100.00;98326.19;6061204;23;20018;-92
2023/12/13 05:19:00;;;;;;;4.72;3.13;;;;;;;8.90;100.00;98336.63;6085215;23;20452;-91
2023/12/13 05:21:28;;;;;;;6.25;2.40;;;;;;;8.90;100.00;98333.13;6108302;23;20590;-92
2023/12/13 05:23:54;;;;;;;8.18;1.75;;;;;;;8.91;100.00;98337.44;6085626;23;20042;-91
2023/12/13 05:26:24;;;;;;;5.45;1.02;;;;;;;8.93;100.00;98338.13;6046730;23;20022;-92
2023/12/13 05:28:50;;;;;;;5.13;0.93;;;;;;;8.91;100.00;98334.81;6085453;23;20061;-92
2023/12/13 05:31:19;;;;;;;5.55;1.48;;;;;;;8.90;100.00;98339.28;6061365;23;20049;-89
2023/12/13 05:33:46;;;;;;;4.57;1.02;;;;;;;8.89;100.00;98331.47;6108608;23;20030;-89
2023/12/13 05:36:13;;;;;;;2.00;0.85;;;;;;;8.89;100.00;98323.53;6083502;23;20751;-90
2023/12/13 05:38:41;;;;;;;3.13;0.85;;;;;;;8.88;100.00;98317.41;6060617;23;20022;-89
2023/12/13 05:41:08;;;;;;;9.77;1.23;;;;;;;8.88;100.00;98319.25;6108483;23;20089;-88
2023/12/13 05:43:35;;;;;;;3.20;1.52;;;;;;;8.87;100.00;98315.75;6085004;23;20401;-93
2023/12/13 05:46:02;;;;;;;10.75;1.92;;;;;;;8.85;100.00;98320.41;6108965;23;20022;-93
2023/12/13 05:48:29;;;;;;;5.68;1.83;;;;;;;8.85;100.00;98316.91;6063310;23;20026;-95
2023/12/13 05:50:56;;;;;;;10.70;2.83;;;;;;;8.85;100.00;98308.97;6079329;23;20029;-95
2023/12/13 05:53:23;;;;;;;8.93;2.03;;;;;;;8.85;100.00;98323.03;6114505;23;20378;-95
2023/12/13 05:55:50;;;;;;;9.32;1.75;;;;;;;8.85;100.00;98322.19;6090528;23;20363;-95
2023/12/13 05:58:18;;;;;;;8.30;1.40;;;;;;;8.83;100.00;98310.97;6089206;23;20026;-96
2023/12/13 06:00:45;;;;;;;4.38;1.45;;;;;;;8.80;100.00;98306.81;6089369;23;20022;-95
2023/12/13 06:03:12;;;;;;;3.92;1.45;;;;;;;8.79;100.00;98310.44;6089006;23;20038;-94
2023/12/13 06:05:39;;;;;;;9.13;2.10;;;;;;;8.79;100.00;98306.97;6088764;23;20085;-95
2023/12/13 06:08:06;;;;;;;6.82;1.65;;;;;;;8.79;100.00;98307.78;6063865;23;20029;-94
2023/12/13 06:10:33;;;;;;;5.57;2.00;;;;;;;8.80;100.00;98312.13;6042711;23;20026;-95
2023/12/13 06:13:00;;;;;;;3.90;1.65;;;;;;;8.80;100.00;98314.75;6041971;23;20121;-95
2023/12/13 06:15:27;;;;;;;10.43;1.33;;;;;;;8.81;100.00;98313.75;6063066;23;20350;-96
2023/12/13 06:17:54;;;;;;;3.42;0.90;;;;;;;8.80;100.00;98309.47;6087187;23;20025;-95
2023/12/13 06:20:21;;;;;;;3.38;0.80;;;;;;;8.78;100.00;98306.16;6085989;23;20097;-95
2023/12/13 06:22:48;;;;;;;2.45;0.93;;;;;;;8.79;100.00;98310.44;6084194;23;20386;-94
2023/12/13 06:25:15;;;;;;;3.75;1.17;;;;;;;8.78;100.00;98302.69;6039618;23;20022;-94
2023/12/13 06:27:42;;;;;;;3.80;1.45;;;;;;;8.76;100.00;98307.31;6062996;23;20022;-95
2023/12/13 06:30:10;;;;;;;3.97;1.20;;;;;;;8.77;100.00;98303.66;6062115;23;20026;-94
2023/12/13 06:32:37;;;;;;;4.20;2.40;;;;;;;8.78;100.00;98295.56;6063228;23;20034;-95
2023/12/13 06:35:04;;;;;;;4.88;1.80;;;;;;;8.79;100.00;98307.78;6039214;23;20024;-94
2023/12/13 06:37:31;;;;;;;8.43;1.67;;;;;;;8.80;100.00;98303.31;6086431;23;20037;-94
2023/12/13 06:39:59;;;;;;;4.03;1.30;;;;;;;8.77;100.00;98304.47;6038902;23;20050;-94
2023/12/13 06:42:28;;;;;;;4.35;1.05;;;;;;;8.79;100.00;98296.38;6062737;23;20039;-94
2023/12/13 06:44:56;;;;;;;3.53;1.00;;;;;;;8.80;100.00;98304.19;6063265;23;20050;-96
2023/12/13 06:47:23;;;;;;;3.53;0.90;;;;;;;8.80;100.00;98303.31;6062556;23;20495;-95
2023/12/13 06:49:53;;;;;;;3.13;1.35;;;;;;;8.76;100.00;98302.00;6110835;23;20042;-94
2023/12/13 06:52:19;;;;;;;4.57;1.20;;;;;;;8.78;100.00;98303.50;6038857;23;20019;-94
2023/12/13 06:54:46;;;;;;;2.08;1.10;;;;;;;8.76;100.00;98308.13;6086110;23;20097;-94
2023/12/13 06:57:13;;;;;;;5.32;1.95;;;;;;;8.73;100.00;98300.50;6062705;23;20026;-93
2023/12/13 06:59:40;;;;;;;3.83;1.90;;;;;;;8.71;100.00;98302.50;6109934;23;20022;-94
2023/12/13 07:02:07;;;;;;;15.90;5.25;;;;;;;8.68;100.00;98297.53;6061039;23;20025;-94
2023/12/13 07:04:35;;;;;;;10.82;3.92;;;;;;;8.68;100.00;98297.53;6086235;23;20396;-93
2023/12/13 07:07:02;;;;;;;6.32;3.38;;;;;;;8.68;100.00;98310.75;6062492;23;20049;-93
2023/12/13 07:09:30;;;;;;;8.07;3.00;;;;;;;8.67;100.00;98298.50;6086270;23;20022;-94
2023/12/13 07:11:57;;;;;;;4.50;1.90;;;;;;;8.64;100.00;98291.72;6038782;23;20085;-94
2023/12/13 07:14:24;;;;;;;5.93;2.03;;;;;;;8.62;100.00;98300.78;6039077;23;20014;-93
2023/12/13 07:16:51;;;;;;;5.47;1.50;;;;;;;8.58;100.00;98295.00;6088230;23;20026;-93
2023/12/13 07:19:18;;;;;;;4.85;1.90;;;;;;;8.60;100.00;98300.97;6067887;23;20034;-92
2023/12/13 07:21:45;;;;;;;5.80;2.70;;;;;;;8.60;100.00;98300.97;6116780;23;20446;-92
2023/12/13 07:24:12;;;;;;;9.27;2.63;;;;;;;8.60;100.00;98300.13;6091994;23;20027;-94
2023/12/13 07:26:38;;;;;;;5.22;3.08;;;;;;;8.59;100.00;98301.94;6092934;23;20651;-92
2023/12/13 07:29:05;;;;;;;7.95;2.78;;;;;;;8.58;100.00;98300.31;6093355;23;20509;-93
2023/12/13 07:31:37;;;;;;;5.82;2.95;;;;;;;8.55;100.00;98300.63;6070924;23;20026;-92
2023/12/13 07:34:03;;;;;;;6.05;2.83;;;;;;;8.58;100.00;98302.94;6091546;23;20022;-92
2023/12/13 07:36:30;;;;;;;8.48;2.42;;;;;;;8.60;100.00;98300.13;6044653;23;20424;-93
2023/12/13 07:38:57;;;;;;;4.18;1.80;;;;;;;8.59;100.00;98301.94;6092271;23;20450;-93
2023/12/13 07:41:25;;;;;;;4.82;1.50;;;;;;;8.58;100.00;98297.66;6091237;23;20025;-94
2023/12/13 07:43:52;;;;;;;4.13;2.25;;;;;;;8.62;100.00;98308.72;6116703;23;20014;-92
2023/12/13 07:46:19;;;;;;;10.70;2.80;;;;;;;8.61;100.00;98299.97;6070037;23;20030;-93
2023/12/13 07:48:47;;;;;;;9.35;4.97;;;;;;;8.58;100.00;98295.00;6068379;23;20022;-92
2023/12/13 07:51:14;;;;;;;8.63;4.20;;;;;;;8.60;100.00;98287.75;6090354;23;20049;-87
2023/12/13 07:53:41;;;;;;;8.23;5.07;;;;;;;8.57;100.00;98295.97;6068205;23;20018;-93
2023/12/13 07:56:10;;;;;;;5.22;2.78;;;;;;;8.58;100.00;98299.47;6067860;23;20074;-94
2023/12/13 07:58:46;;;;;;;4.72;2.15;;;;;;;8.54;100.00;98293.66;6091125;23;21002;-92
2023/12/13 08:01:15;;;;;;;7.68;4.18;;;;;;;8.55;100.00;98294.47;6117574;23;20026;-92
2023/12/13 08:03:43;;;;;;;7.20;4.30;;;;;;;8.56;100.00;98290.88;6070643;23;20042;-92
2023/12/13 08:06:12;;;;;;;18.73;7.35;;;;;;;8.58;100.00;98284.44;6115694;23;20030;-92
2023/12/13 08:08:40;;;;;;;16.75;7.15;;;;;;;8.61;100.00;98288.56;6087298;23;20034;-88
2023/12/13 08:11:07;;;;;;;15.50;7.82;;;;;;;8.61;100.00;98288.56;6061570;23;20760;-87
2023/12/13 08:13:34;;;;;;;24.98;9.90;;;;;;;8.62;100.00;98287.56;6086520;23;20513;-88
2023/12/13 08:16:01;;;;;;;31.30;8.35;;;;;;;8.62;100.00;98287.56;6085375;23;20026;-88
2023/12/13 08:18:28;;;;;;;34.67;8.00;;;;;;;8.66;100.00;98288.91;6085750;23;20030;-89
2023/12/13 08:20:55;;;;;;;12.18;5.93;;;;;;;8.68;100.00;98292.22;6085739;23;20685;-89
2023/12/13 08:23:22;;;;;;;12.80;4.78;;;;;;;8.69;100.00;98288.59;6120572;23;20037;-90
2023/12/13 08:25:49;;;;;;;10.70;3.80;;;;;;;8.71;100.00;98286.59;6036745;23;20018;-90
2023/12/13 08:28:16;;;;;;;8.48;3.55;;;;;;;8.71;100.00;98286.59;6085065;23;20733;-89
2023/12/13 08:30:42;;;;;;;13.32;3.10;;;;;;;8.75;100.00;98289.75;6108528;23;20022;-89
2023/12/13 08:33:09;;;;;;;8.88;2.75;;;;;;;8.77;100.00;98287.78;6085592;23;20081;-90
2023/12/13 08:35:36;;;;;;;9.02;2.70;;;;;;;8.77;100.00;98288.59;6109570;23;20380;-88
2023/12/13 08:38:03;;;;;;;7.65;3.25;;;;;;;8.77;100.00;98291.25;6087565;23;20053;-86
2023/12/13 08:40:30;;;;;;;9.00;2.95;;;;;;;8.77;100.00;98293.88;6084266;23;20026;-87
2023/12/13 08:42:57;;;;;;;11.90;5.05;;;;;;;8.77;100.00;98295.72;6085709;23;20030;-87
2023/12/13 08:45:24;;;;;;;15.18;4.65;;;;;;;8.73;100.00;98294.38;6085411;23;20081;-87
2023/12/13 08:47:50;;;;;;;17.80;5.40;;;;;;;8.72;100.00;98296.19;6109409;23;20121;-87
2023/12/13 08:50:17;;;;;;;9.13;4.40;;;;;;;8.74;100.00;98302.16;6083965;23;20030;-87
2023/12/13 08:52:44;;;;;;;11.77;4.30;;;;;;;8.72;100.00;98312.06;6110649;23;20022;-88
2023/12/13 08:55:11;;;;;;;19.52;4.25;;;;;;;8.73;100.00;98311.09;6108566;23;20026;-87
2023/12/13 08:57:38;;;;;;;17.80;5.18;;;;;;;8.71;100.00;98306.97;6086111;23;20046;-85
2023/12/13 09:00:06;;;;;;;14.68;5.20;;;;;;;8.71;100.00;98310.44;6108477;23;20076;-87
2023/12/13 09:02:37;;;;;;;14.55;5.30;;;;;;;8.69;100.00;98312.41;6108744;23;20026;-87
2023/12/13 09:05:04;;;;;;;14.48;6.75;;;;;;;8.68;100.00;98313.41;6084333;23;20030;-87
2023/12/13 09:07:31;;;;;;;26.02;9.70;;;;;;;8.72;100.00;98311.25;6060776;23;20076;-87
2023/12/13 09:09:59;;;;;;;42.50;18.98;;;;;;;8.72;100.00;98317.38;6107732;23;20358;-86
2023/12/13 09:12:27;;;;;;;25.98;11.02;;;;;;;8.73;100.00;98307.59;6135080;23;20030;-86
2023/12/13 09:14:54;;;;;;;32.72;14.73;;;;;;;8.73;100.00;98312.88;6061215;23;20023;-87
2023/12/13 09:17:21;;;;;;;32.10;12.95;;;;;;;8.73;100.00;98311.09;6084276;23;20469;-87
2023/12/13 09:19:48;;;;;;;27.35;11.48;;;;;;;8.75;100.00;98311.78;6109345;23;20015;-87
2023/12/13 09:22:16;;;;;;;23.17;11.18;;;;;;;8.75;100.00;98311.78;6084888;23;20519;-87
2023/12/13 09:24:43;;;;;;;22.80;11.43;;;;;;;8.76;100.00;98309.94;6085464;23;20030;-87
2023/12/13 09:27:09;;;;;;;17.08;7.50;;;;;;;8.77;100.00;98307.13;6038396;23;20025;-89
2023/12/13 09:29:36;;;;;;;13.77;6.55;;;;;;;8.78;100.00;98314.09;6084029;23;20406;-88
2023/12/13 09:32:03;;;;;;;13.93;5.88;;;;;;;8.80;100.00;98296.25;6084632;23;20030;-88
2023/12/13 09:34:30;;;;;;;10.40;5.15;;;;;;;8.85;100.00;98303.66;6061262;23;20114;-89
2023/12/13 09:36:56;;;;;;;14.45;6.70;;;;;;;8.85;100.00;98299.22;6108770;23;20025;-88
2023/12/13 09:39:23;;;;;;;18.80;7.03;;;;;;;8.86;100.00;98300.03;6109451;23;20038;-89
2023/12/13 09:42:03;;;;;;;10.82;5.93;;;;;;;8.85;100.00;98301.88;6084387;23;20014;-86
2023/12/13 09:44:32;;;;;;;9.52;5.13;;;;;;;8.89;100.00;98305.00;6061578;23;20019;-87
2023/12/13 09:47:02;;;;;;;11.98;5.60;;;;;;;8.90;100.00;98307.50;6085136;23;20080;-87
2023/12/13 09:49:29;;;;;;;15.02;6.10;;;;;;;8.94;100.00;98307.19;6084343;23;20031;-87
2023/12/13 09:52:07;;;;;;;7.78;4.85;;;;;;;8.93;100.00;98308.16;6085203;23;20045;-87
2023/12/13 09:54:35;;;;;;;18.73;6.20;;;;;;;8.95;100.00;98308.81;6110048;23;20022;-87
2023/12/13 09:57:05;;;;;;;10.25;5.63;;;;;;;8.96;100.00;98310.50;6084469;23;20019;-87
2023/12/13 09:59:31;;;;;;;11.20;5.60;;;;;;;8.97;100.00;98306.84;6108705;23;20609;-87
2023/12/13 10:01:59;;;;;;;14.68;5.53;;;;;;;8.99;100.00;98310.16;6084383;23;20021;-87
2023/12/13 10:04:27;;;;;;;12.45;5.38;;;;;;;9.01;100.00;98297.59;6108663;23;20027;-87
2023/12/13 10:06:56;;;;;;;7.10;4.40;;;;;;;9.03;100.00;98301.72;6083651;23;20058;-87
2023/12/13 10:09:27;;;;;;;10.90;4.47;;;;;;;9.07;100.00;98299.56;6060053;23;20023;-87
2023/12/13 10:11:54;;;;;;;13.68;5.07;;;;;;;9.08;100.00;98291.47;6059910;23;20033;-87
2023/12/13 10:14:21;;;;;;;15.70;5.28;;;;;;;9.11;100.00;98300.91;6084535;23;20029;-85
2023/12/13 10:16:50;;;;;;;13.98;5.90;;;;;;;9.12;100.00;98294.63;6133543;23;20018;-88
2023/12/13 10:19:34;;;;;;;21.48;8.23;;;;;;;9.14;100.00;98295.28;6084509;23;20022;-88
2023/12/13 10:22:05;;;;;;;20.88;7.90;;;;;;;9.14;100.00;98300.59;6084413;23;20073;-88
2023/12/13 10:24:33;;;;;;;18.92;7.00;;;;;;;9.19;100.00;98300.91;6084881;23;20046;-88
2023/12/13 10:27:00;;;;;;;17.38;6.72;;;;;;;9.24;100.00;98300.44;6133641;23;20541;-87
2023/12/13 10:29:27;;;;;;;15.30;5.88;;;;;;;9.28;100.00;98307.03;6060465;23;20335;-87
2023/12/13 10:31:56;;;;;;;14.80;5.55;;;;;;;9.29;100.00;98301.59;6107889;23;20022;-87
2023/12/13 10:34:23;;;;;;;12.27;4.93;;;;;;;9.28;100.00;98302.56;6060865;23;20038;-86
2023/12/13 10:36:50;;;;;;;18.48;5.82;;;;;;;9.31;100.00;98299.59;6084891;23;20019;-87
2023/12/13 10:39:19;;;;;;;13.63;5.40;;;;;;;9.31;100.00;98296.09;6060088;23;20872;-87
2023/12/13 10:41:47;;;;;;;10.00;4.97;;;;;;;9.33;100.00;98296.78;6108520;23;20022;-87
2023/12/13 10:44:18;;;;;;;11.80;4.47;;;;;;;9.35;100.00;98298.25;6107334;23;20050;-87
2023/12/13 10:46:46;;;;;;;17.27;4.47;;;;;;;9.37;100.00;98302.59;6083926;23;20438;-88
2023/12/13 10:49:15;;;;;;;6.60;4.40;;;;;;;9.38;100.00;98302.41;6083808;23;20027;-87
2023/12/13 10:51:43;;;;;;;11.35;4.70;;;;;;;9.41;100.00;98298.59;6108088;23;20081;-88
2023/12/13 10:54:11;;;;;;;9.05;4.40;;;;;;;9.44;100.00;98298.25;6083912;23;20358;-87
2023/12/13 10:56:39;;;;;;;7.38;4.18;;;;;;;9.44;100.00;98298.25;6108768;23;20513;-88
2023/12/13 10:59:09;;;;;;;7.10;3.85;;;;;;;9.47;100.00;98292.66;6107244;23;20026;-87
2023/12/13 11:01:38;;;;;;;7.75;3.33;;;;;;;9.49;100.00;98290.63;6108860;23;20041;-87
2023/12/13 11:04:20;;;;;;;7.10;3.55;;;;;;;9.47;100.00;98293.47;6036632;23;20041;-88
2023/12/13 11:07:04;;;;;;;10.63;3.60;;;;;;;9.51;100.00;98292.13;6014889;23;20118;-88
2023/12/13 11:09:36;;;;;;;9.02;4.50;;;;;;;9.51;100.00;98288.66;6083913;23;20065;-88
2023/12/13 11:12:10;;;;;;;5.30;3.28;;;;;;;9.50;100.00;98294.97;6059391;23;20021;-88
2023/12/13 11:14:40;;;;;;;6.35;3.22;;;;;;;9.52;100.00;98290.31;6084196;23;20583;-89
2023/12/13 11:17:07;;;;;;;5.75;2.60;;;;;;;9.52;100.00;98285.03;6108412;23;20034;-88
2023/12/13 11:19:35;;;;;;;5.93;2.42;;;;;;;9.53;100.00;98284.03;6084883;23;20026;-89
2023/12/13 11:22:06;;;;;;;4.60;2.13;;;;;;;9.55;100.00;98293.44;6083081;23;20077;-89
2023/12/13 11:24:36;;;;;;;5.85;1.80;;;;;;;9.55;100.00;98279.38;6108436;23;20477;-88
2023/12/13 11:27:10;;;;;;;7.65;2.35;;;;;;;9.55;100.00;98284.69;6108179;23;20042;-89
2023/12/13 11:29:37;;;;;;;4.57;2.08;;;;;;;9.56;100.00;98281.03;6107114;23;20018;-89
2023/12/13 11:32:04;;;;;;;3.40;2.20;;;;;;;9.58;100.00;98284.34;6059827;23;20085;-89
2023/12/13 11:34:32;;;;;;;5.50;2.33;;;;;;;9.59;100.00;98280.69;6108569;23;20532;-90